Time;durP1;ratioP1;P1;durP2;ratioP2;P2;SDS_P1;SDS_P2;PMS_P1;PMS_P2;Temp;Humidity;BMP_temperature;BMP_pressure;BME280_temperature;BME280_humidity;BME280_pressure;Samples;Min_cycle;Max_cycle;Signal;HPM_P1;HPM_P2
2020/12/30 00:00:54;;;;;;;9.57;7.47;;;8.60;72.30;;;;;;4990889;28;20042;-76
2020/12/30 00:03:20;;;;;;;7.40;6.03;;;8.70;72.30;;;;;;4990622;28;20057;-76
2020/12/30 00:05:45;;;;;;;7.35;6.15;;;8.70;72.20;;;;;;4985626;28;20210;-76
2020/12/30 00:08:11;;;;;;;7.55;6.47;;;8.70;72.20;;;;;;4989355;28;20038;-76
2020/12/30 00:10:37;;;;;;;7.03;6.07;;;8.70;72.20;;;;;;4990695;28;20034;-75
2020/12/30 00:13:03;;;;;;;7.95;6.53;;;8.60;72.20;;;;;;4990296;28;20034;-76
2020/12/30 00:15:28;;;;;;;6.97;6.28;;;8.60;72.20;;;;;;4985801;28;20519;-76
2020/12/30 00:17:54;;;;;;;7.78;6.82;;;8.70;72.20;;;;;;4990619;28;20044;-76
2020/12/30 00:20:20;;;;;;;6.97;5.85;;;8.60;72.20;;;;;;4985619;28;20031;-76
2020/12/30 00:22:47;;;;;;;7.60;6.82;;;8.60;72.20;;;;;;4990354;28;20057;-75
2020/12/30 00:25:13;;;;;;;7.65;6.45;;;8.60;72.20;;;;;;5005550;28;20046;-76
2020/12/30 00:27:41;;;;;;;7.25;6.22;;;8.60;72.20;;;;;;4996428;28;20515;-76
2020/12/30 00:30:14;;;;;;;8.85;7.18;;;8.60;72.10;;;;;;5002594;28;20050;-76
2020/12/30 00:32:41;;;;;;;8.50;7.28;;;8.60;72.10;;;;;;4990536;28;20058;-77
2020/12/30 00:35:07;;;;;;;8.80;6.40;;;8.60;72.00;;;;;;4990761;28;20043;-76
2020/12/30 00:37:33;;;;;;;7.43;6.30;;;8.60;72.00;;;;;;5000736;28;20113;-74
2020/12/30 00:39:58;;;;;;;8.02;7.22;;;8.60;72.10;;;;;;4986669;28;20179;-75
2020/12/30 00:42:31;;;;;;;7.95;7.10;;;8.60;72.20;;;;;;4990024;28;20037;-76
2020/12/30 00:44:58;;;;;;;8.07;7.28;;;8.60;72.20;;;;;;4983456;28;20377;-75
2020/12/30 00:47:23;;;;;;;6.93;6.07;;;8.60;72.20;;;;;;4989878;28;20039;-76
2020/12/30 00:49:49;;;;;;;6.47;5.47;;;8.60;72.20;;;;;;4989030;28;20419;-76
2020/12/30 00:52:14;;;;;;;7.13;6.13;;;8.50;72.20;;;;;;4980972;28;20042;-76
2020/12/30 00:54:40;;;;;;;5.95;5.20;;;8.60;72.30;;;;;;4984219;28;20030;-76
2020/12/30 00:57:05;;;;;;;6.80;5.75;;;8.50;72.20;;;;;;4986104;28;20121;-77
2020/12/30 00:59:31;;;;;;;7.10;5.55;;;8.60;72.20;;;;;;4988263;28;20485;-76
2020/12/30 01:01:56;;;;;;;6.45;5.72;;;8.60;72.20;;;;;;4997911;28;20042;-76
2020/12/30 01:04:22;;;;;;;6.78;5.80;;;8.60;72.20;;;;;;4991201;28;20036;-76
2020/12/30 01:06:52;;;;;;;5.95;5.30;;;8.50;72.20;;;;;;4989324;28;20409;-76
2020/12/30 01:09:18;;;;;;;6.22;5.38;;;8.60;72.20;;;;;;4985518;28;20176;-76
2020/12/30 01:11:44;;;;;;;6.57;5.43;;;8.60;72.20;;;;;;4985041;28;20085;-77
2020/12/30 01:14:10;;;;;;;5.35;4.70;;;8.50;72.20;;;;;;4985513;28;20034;-75
2020/12/30 01:16:35;;;;;;;6.18;5.57;;;8.60;72.20;;;;;;4985330;28;20145;-76
2020/12/30 01:19:02;;;;;;;7.47;5.50;;;8.60;72.20;;;;;;4984424;28;20116;-75
2020/12/30 01:21:27;;;;;;;6.55;5.78;;;8.50;72.00;;;;;;4979629;28;20038;-74
2020/12/30 01:23:53;;;;;;;6.47;5.80;;;8.60;72.20;;;;;;5016966;23;20239;-73
2020/12/30 01:26:18;;;;;;;5.90;5.30;;;8.60;72.20;;;;;;5007444;28;20037;-73
2020/12/30 01:28:44;;;;;;;6.90;5.43;;;8.50;72.10;;;;;;5009388;28;20073;-74
2020/12/30 01:31:09;;;;;;;6.10;5.00;;;8.50;72.20;;;;;;5009638;28;20037;-73
2020/12/30 01:33:35;;;;;;;6.20;5.05;;;8.60;72.30;;;;;;5009012;28;20072;-73
2020/12/30 01:36:00;;;;;;;7.13;5.50;;;8.50;72.20;;;;;;5007061;28;20026;-73
2020/12/30 01:38:26;;;;;;;9.98;5.50;;;8.50;72.20;;;;;;5009748;28;20034;-73
2020/12/30 01:40:55;;;;;;;7.07;5.40;;;8.60;72.30;;;;;;5007410;28;20113;-73
2020/12/30 01:43:21;;;;;;;8.15;6.43;;;8.50;72.30;;;;;;5005593;28;20030;-73
2020/12/30 01:45:48;;;;;;;8.20;6.13;;;8.50;72.20;;;;;;5008090;28;20053;-73
2020/12/30 01:48:20;;;;;;;6.40;5.63;;;8.60;72.30;;;;;;5010897;28;20042;-73
2020/12/30 01:50:46;;;;;;;7.65;6.47;;;8.60;72.30;;;;;;5004815;28;20045;-73
2020/12/30 01:53:12;;;;;;;7.47;6.53;;;8.50;72.20;;;;;;5006882;28;20044;-72
2020/12/30 01:55:41;;;;;;;6.00;5.40;;;8.60;72.30;;;;;;5005163;28;20088;-73
2020/12/30 01:58:08;;;;;;;6.03;5.38;;;8.60;72.30;;;;;;5007406;28;20034;-73
2020/12/30 02:00:35;;;;;;;6.57;5.53;;;8.60;72.30;;;;;;5003505;28;20023;-73
2020/12/30 02:03:03;;;;;;;7.68;6.18;;;8.50;72.20;;;;;;5007496;28;20030;-73
2020/12/30 02:05:30;;;;;;;6.45;5.72;;;8.50;72.10;;;;;;5003351;28;20038;-73
2020/12/30 02:07:57;;;;;;;8.18;6.20;;;8.50;72.10;;;;;;5008146;28;20088;-73
2020/12/30 02:10:25;;;;;;;7.35;6.15;;;8.50;72.10;;;;;;5008055;28;20026;-73
2020/12/30 02:12:51;;;;;;;7.72;6.57;;;8.50;72.10;;;;;;5001774;28;20038;-73
2020/12/30 02:15:30;;;;;;;8.65;7.20;;;8.50;72.10;;;;;;5007810;28;20034;-73
2020/12/30 02:17:57;;;;;;;8.40;6.97;;;8.50;72.10;;;;;;5002144;28;20029;-73
2020/12/30 02:20:23;;;;;;;7.78;6.57;;;8.60;72.10;;;;;;5002280;28;20500;-73
2020/12/30 02:23:00;;;;;;;7.65;6.40;;;8.50;72.00;;;;;;5005278;28;20066;-73
2020/12/30 02:25:26;;;;;;;7.88;6.57;;;8.50;72.00;;;;;;5002556;28;20034;-73
2020/12/30 02:27:51;;;;;;;7.78;6.22;;;8.50;72.00;;;;;;5010243;28;20034;-73
2020/12/30 02:30:20;;;;;;;7.65;6.53;;;8.50;72.00;;;;;;5004950;28;20065;-73
2020/12/30 02:32:47;;;;;;;7.22;6.18;;;8.50;72.10;;;;;;5008004;28;20038;-73
2020/12/30 02:35:13;;;;;;;7.97;6.53;;;8.50;72.10;;;;;;5008104;28;20041;-73
2020/12/30 02:37:39;;;;;;;8.48;6.63;;;8.50;72.00;;;;;;5007650;28;20022;-73
2020/12/30 02:40:05;;;;;;;8.60;6.75;;;8.50;72.10;;;;;;5008573;28;20088;-73
2020/12/30 02:42:31;;;;;;;7.10;6.03;;;8.40;72.00;;;;;;5007334;28;20045;-73
2020/12/30 02:45:03;;;;;;;7.57;6.30;;;8.40;72.00;;;;;;5007236;28;20064;-74
2020/12/30 02:47:29;;;;;;;8.90;6.15;;;8.40;72.00;;;;;;5005679;28;20475;-73
2020/12/30 02:49:54;;;;;;;7.68;6.13;;;8.40;71.90;;;;;;5005393;28;20109;-73
2020/12/30 02:52:20;;;;;;;7.07;6.07;;;8.40;72.00;;;;;;5000597;28;20175;-72
2020/12/30 02:54:45;;;;;;;8.32;6.65;;;8.40;72.00;;;;;;5005837;28;20037;-73
2020/12/30 02:57:10;;;;;;;7.15;6.10;;;8.40;72.10;;;;;;5006131;28;20030;-73
2020/12/30 02:59:36;;;;;;;8.00;6.50;;;8.30;72.00;;;;;;5005289;28;20025;-73
2020/12/30 03:02:01;;;;;;;8.30;6.43;;;8.40;72.00;;;;;;4998614;28;20562;-73
2020/12/30 03:04:27;;;;;;;9.15;5.90;;;8.30;72.00;;;;;;5006170;28;20029;-73
2020/12/30 03:06:52;;;;;;;7.63;6.68;;;8.30;72.00;;;;;;4999732;28;20034;-73
2020/12/30 03:09:18;;;;;;;6.50;5.70;;;8.30;72.00;;;;;;5003953;28;20519;-73
2020/12/30 03:11:48;;;;;;;6.95;5.78;;;8.30;72.00;;;;;;5003145;28;20026;-73
2020/12/30 03:14:13;;;;;;;7.68;5.88;;;8.30;72.00;;;;;;5002574;28;20037;-73
2020/12/30 03:16:38;;;;;;;8.40;6.57;;;8.40;72.00;;;;;;5004438;28;20042;-73
2020/12/30 03:19:04;;;;;;;9.50;6.25;;;8.30;71.90;;;;;;4992102;28;20040;-74
2020/12/30 03:21:29;;;;;;;7.70;6.35;;;8.30;71.90;;;;;;4991006;28;20046;-73
2020/12/30 03:23:55;;;;;;;7.80;6.47;;;8.20;71.70;;;;;;4985365;28;20057;-73
2020/12/30 03:26:20;;;;;;;6.95;5.93;;;8.20;71.70;;;;;;4993746;28;20403;-73
2020/12/30 03:28:46;;;;;;;8.00;6.13;;;8.30;71.70;;;;;;4986284;28;20037;-73
2020/12/30 03:31:11;;;;;;;6.32;5.50;;;8.20;71.70;;;;;;4991736;28;20125;-73
2020/12/30 03:33:37;;;;;;;7.72;6.28;;;8.20;71.80;;;;;;4987748;28;20053;-73
2020/12/30 03:36:02;;;;;;;7.95;6.88;;;8.20;71.80;;;;;;4989081;28;20034;-73
2020/12/30 03:38:28;;;;;;;8.90;6.50;;;8.10;71.70;;;;;;4991228;28;20030;-73
2020/12/30 03:40:53;;;;;;;7.93;6.53;;;8.20;71.90;;;;;;4986721;28;20030;-73
2020/12/30 03:43:19;;;;;;;7.78;5.97;;;8.10;71.80;;;;;;4991525;28;20074;-73
2020/12/30 03:45:44;;;;;;;8.50;6.70;;;8.10;71.80;;;;;;4986981;28;20041;-73
2020/12/30 03:48:10;;;;;;;8.98;6.57;;;8.10;71.80;;;;;;4993721;28;20449;-73
2020/12/30 03:50:35;;;;;;;7.05;6.22;;;8.10;71.90;;;;;;4990527;28;20057;-73
2020/12/30 03:53:01;;;;;;;8.90;6.78;;;8.10;71.90;;;;;;4986360;28;20057;-73
2020/12/30 03:55:26;;;;;;;9.05;7.22;;;8.10;72.00;;;;;;4992008;28;20034;-73
2020/12/30 03:57:51;;;;;;;7.78;6.15;;;8.10;72.00;;;;;;4986624;28;20034;-73
2020/12/30 04:00:17;;;;;;;8.55;6.68;;;8.10;72.10;;;;;;4990825;28;20072;-73
2020/12/30 04:02:42;;;;;;;8.32;6.35;;;8.10;72.10;;;;;;4985869;28;20384;-73
2020/12/30 04:05:08;;;;;;;7.47;6.22;;;8.10;72.10;;;;;;4990223;28;20040;-73
2020/12/30 04:07:33;;;;;;;7.60;6.65;;;8.10;72.10;;;;;;4991464;28;20581;-73
2020/12/30 04:09:59;;;;;;;7.28;6.03;;;8.10;72.10;;;;;;4986990;28;20120;-73
2020/12/30 04:12:24;;;;;;;7.43;6.25;;;8.10;72.10;;;;;;4990710;28;20030;-73
2020/12/30 04:14:50;;;;;;;9.13;6.43;;;8.10;72.10;;;;;;4984015;28;20038;-73
2020/12/30 04:17:15;;;;;;;8.52;7.10;;;8.10;72.10;;;;;;4992377;28;20034;-72
2020/12/30 04:19:41;;;;;;;8.38;6.68;;;8.20;72.20;;;;;;4993455;28;20038;-73
2020/12/30 04:22:06;;;;;;;8.40;6.75;;;8.10;72.10;;;;;;4979976;28;20411;-72
2020/12/30 04:24:32;;;;;;;7.88;6.05;;;8.10;72.10;;;;;;4988988;28;20129;-73
2020/12/30 04:26:57;;;;;;;7.22;6.05;;;8.20;72.20;;;;;;4984960;28;20708;-72
2020/12/30 04:29:23;;;;;;;7.47;6.43;;;8.20;72.20;;;;;;4986807;28;20042;-72
2020/12/30 04:31:48;;;;;;;9.00;7.25;;;8.20;72.10;;;;;;4999356;28;20550;-73
2020/12/30 04:34:14;;;;;;;8.45;6.72;;;8.20;72.10;;;;;;5005810;28;20060;-72
2020/12/30 04:36:39;;;;;;;8.07;6.45;;;8.20;72.10;;;;;;5004418;28;20058;-72
2020/12/30 04:39:05;;;;;;;7.68;6.50;;;8.20;72.10;;;;;;5006209;28;20096;-73
2020/12/30 04:41:35;;;;;;;8.15;7.00;;;8.20;72.10;;;;;;5009465;28;20407;-73
2020/12/30 04:44:02;;;;;;;7.32;6.35;;;8.20;72.00;;;;;;5005816;28;20522;-73
2020/12/30 04:46:28;;;;;;;6.38;5.47;;;8.20;72.00;;;;;;5008475;28;20514;-73
2020/12/30 04:48:56;;;;;;;7.07;6.00;;;8.20;72.00;;;;;;5009075;28;20057;-73
2020/12/30 04:51:23;;;;;;;7.72;6.38;;;8.20;71.90;;;;;;5004223;28;20042;-73
2020/12/30 04:53:50;;;;;;;8.07;6.45;;;8.20;71.90;;;;;;5008867;28;20037;-74
2020/12/30 04:56:16;;;;;;;8.73;6.97;;;8.20;71.90;;;;;;5008576;28;20030;-74
2020/12/30 04:58:42;;;;;;;8.95;7.05;;;8.10;71.90;;;;;;5008047;28;20061;-71
2020/12/30 05:01:12;;;;;;;7.00;6.05;;;8.20;72.00;;;;;;5007282;28;20045;-73
2020/12/30 05:03:45;;;;;;;6.85;5.40;;;8.20;72.00;;;;;;5007970;28;20048;-73
2020/12/30 05:06:13;;;;;;;8.25;6.43;;;8.20;72.00;;;;;;5002672;28;20065;-73
2020/12/30 05:08:40;;;;;;;6.82;5.88;;;8.10;71.90;;;;;;5009148;28;20026;-72
2020/12/30 05:11:06;;;;;;;9.38;7.13;;;8.20;72.00;;;;;;5008399;28;20515;-73
2020/12/30 05:13:31;;;;;;;7.95;6.55;;;8.10;71.90;;;;;;5006123;28;20041;-72
2020/12/30 05:15:57;;;;;;;7.32;5.88;;;8.10;71.90;;;;;;5009117;28;20113;-72
2020/12/30 05:18:23;;;;;;;6.35;5.65;;;8.20;72.00;;;;;;5009303;28;20037;-73
2020/12/30 05:20:49;;;;;;;8.00;6.72;;;8.10;72.00;;;;;;5004131;28;20026;-73
2020/12/30 05:23:14;;;;;;;6.20;5.53;;;8.20;72.00;;;;;;5007674;28;20039;-72
2020/12/30 05:25:42;;;;;;;7.43;6.35;;;8.10;72.00;;;;;;5007218;28;20096;-73
2020/12/30 05:28:10;;;;;;;8.93;7.35;;;8.10;72.00;;;;;;5008475;28;20049;-73
2020/12/30 05:30:38;;;;;;;7.18;6.20;;;8.10;71.90;;;;;;4999351;28;20041;-73
2020/12/30 05:33:04;;;;;;;6.60;5.90;;;8.20;72.00;;;;;;5000772;28;20029;-72
2020/12/30 05:35:31;;;;;;;8.80;7.22;;;8.10;71.80;;;;;;5003548;28;20081;-73
2020/12/30 05:37:57;;;;;;;7.57;6.45;;;8.10;71.80;;;;;;5008894;28;20553;-72
2020/12/30 05:40:34;;;;;;;7.75;6.18;;;8.10;71.80;;;;;;5008453;28;20077;-72
2020/12/30 05:43:13;;;;;;;7.28;5.68;;;8.10;71.80;;;;;;4996048;28;20042;-72
2020/12/30 05:45:52;;;;;;;8.35;6.40;;;8.20;71.80;;;;;;5004602;28;20069;-72
2020/12/30 05:48:18;;;;;;;8.57;6.90;;;8.10;71.70;;;;;;5008034;28;20418;-73
2020/12/30 05:50:57;;;;;;;7.25;6.13;;;8.10;71.80;;;;;;5001589;28;20038;-72
2020/12/30 05:53:24;;;;;;;5.97;5.38;;;8.10;71.70;;;;;;5005746;28;20109;-73
2020/12/30 05:55:51;;;;;;;8.27;6.40;;;8.10;71.70;;;;;;5006107;28;20026;-72
2020/12/30 05:58:18;;;;;;;6.38;5.78;;;8.10;71.80;;;;;;5002730;28;20030;-72
2020/12/30 06:00:44;;;;;;;8.13;5.93;;;8.10;71.80;;;;;;5002422;28;20044;-73
2020/12/30 06:03:15;;;;;;;7.38;5.75;;;8.10;71.80;;;;;;5004238;28;20034;-72
2020/12/30 06:05:41;;;;;;;6.28;5.15;;;8.10;71.80;;;;;;4999187;28;20447;-72
2020/12/30 06:08:06;;;;;;;6.60;6.00;;;8.10;71.90;;;;;;5006015;28;20050;-73
2020/12/30 06:10:33;;;;;;;7.57;5.65;;;8.10;71.80;;;;;;5007509;28;20084;-72
2020/12/30 06:13:02;;;;;;;7.15;5.95;;;8.10;71.80;;;;;;5005416;28;20030;-72
2020/12/30 06:15:29;;;;;;;9.25;6.35;;;8.10;71.70;;;;;;5005046;28;20037;-73
2020/12/30 06:18:02;;;;;;;7.03;6.00;;;8.10;71.70;;;;;;5006811;28;20097;-73
2020/12/30 06:20:36;;;;;;;7.47;6.07;;;8.10;71.60;;;;;;5002240;28;20085;-72
2020/12/30 06:23:09;;;;;;;8.45;5.55;;;8.10;71.70;;;;;;5006318;28;20512;-73
2020/12/30 06:25:37;;;;;;;8.27;6.82;;;8.10;71.70;;;;;;5006719;28;20030;-72
2020/12/30 06:28:13;;;;;;;8.52;6.43;;;8.10;71.70;;;;;;4999407;28;20117;-72
2020/12/30 06:30:40;;;;;;;7.03;5.85;;;8.00;71.60;;;;;;5004323;28;20609;-73
2020/12/30 06:33:06;;;;;;;6.57;5.88;;;8.00;71.70;;;;;;5005542;28;20041;-72
2020/12/30 06:35:33;;;;;;;7.57;6.00;;;8.10;71.80;;;;;;5002413;28;20404;-73
2020/12/30 06:38:26;;;;;;;6.32;5.65;;;8.00;71.70;;;;;;5008283;28;20077;-73
2020/12/30 06:40:56;;;;;;;6.80;5.82;;;8.00;71.70;;;;;;4999454;28;20561;-72
2020/12/30 06:43:47;;;;;;;6.67;5.30;;;8.00;71.70;;;;;;5000601;28;20450;-72
2020/12/30 06:46:34;;;;;;;8.23;6.03;;;8.00;71.60;;;;;;4998054;28;20344;-72
2020/12/30 06:49:02;;;;;;;6.85;5.72;;;8.00;71.60;;;;;;5002229;28;20041;-72
2020/12/30 06:51:34;;;;;;;6.50;5.82;;;8.10;71.70;;;;;;5004414;28;20686;-72
2020/12/30 06:54:00;;;;;;;8.55;6.63;;;8.00;71.70;;;;;;5006618;28;20174;-73
2020/12/30 06:56:38;;;;;;;7.63;6.82;;;8.00;71.60;;;;;;5008969;28;20543;-72
2020/12/30 06:59:05;;;;;;;6.93;5.95;;;8.00;71.50;;;;;;5003442;28;20034;-72
2020/12/30 07:02:03;;;;;;;9.10;5.95;;;8.00;71.60;;;;;;5002666;28;20040;-73
2020/12/30 07:04:36;;;;;;;5.43;4.53;;;8.00;71.40;;;;;;5007706;28;20030;-73
2020/12/30 07:07:01;;;;;;;6.57;5.55;;;7.90;71.50;;;;;;5007836;28;20109;-73
2020/12/30 07:09:36;;;;;;;7.97;5.85;;;7.90;71.50;;;;;;5008189;28;20118;-73
2020/12/30 07:12:03;;;;;;;7.05;6.07;;;7.90;71.50;;;;;;5007611;28;20030;-72
2020/12/30 07:14:33;;;;;;;5.70;5.03;;;7.90;71.50;;;;;;5001384;28;20053;-73
2020/12/30 07:17:00;;;;;;;6.28;5.47;;;7.90;71.50;;;;;;5006227;28;20038;-73
2020/12/30 07:19:37;;;;;;;7.05;6.15;;;7.90;71.40;;;;;;5003538;28;20084;-73
2020/12/30 07:22:05;;;;;;;9.02;5.78;;;7.80;71.30;;;;;;5003326;28;20438;-73
2020/12/30 07:24:40;;;;;;;6.75;5.43;;;7.80;71.40;;;;;;5013302;23;20050;-70
2020/12/30 07:27:09;;;;;;;7.25;5.70;;;7.80;71.50;;;;;;5024525;28;20494;-73
2020/12/30 07:29:35;;;;;;;6.95;5.60;;;7.80;71.40;;;;;;5011491;28;20041;-71
2020/12/30 07:32:05;;;;;;;7.18;5.75;;;7.80;71.50;;;;;;5024508;28;20036;-73
2020/12/30 07:34:34;;;;;;;6.00;5.15;;;7.80;71.50;;;;;;4999983;28;20029;-72
2020/12/30 07:37:00;;;;;;;7.30;5.95;;;7.80;71.50;;;;;;5016149;28;20053;-73
2020/12/30 07:39:35;;;;;;;8.18;5.68;;;7.90;71.60;;;;;;5009410;28;20072;-73
2020/12/30 07:42:02;;;;;;;7.78;5.63;;;7.80;71.50;;;;;;5004003;28;20057;-70
2020/12/30 07:44:27;;;;;;;5.55;4.85;;;7.80;71.50;;;;;;5011042;28;20037;-72
2020/12/30 07:47:00;;;;;;;6.60;5.55;;;7.80;71.60;;;;;;5020037;28;20670;-73
2020/12/30 07:49:25;;;;;;;6.43;4.72;;;7.80;71.50;;;;;;5006440;28;20066;-74
2020/12/30 07:51:56;;;;;;;5.43;4.65;;;7.70;71.60;;;;;;5004436;28;20116;-73
2020/12/30 07:54:23;;;;;;;6.15;5.10;;;7.80;71.60;;;;;;5006775;28;20510;-73
2020/12/30 07:56:49;;;;;;;5.28;4.72;;;7.70;71.60;;;;;;5007382;28;20037;-73
2020/12/30 07:59:21;;;;;;;5.82;4.63;;;7.70;71.60;;;;;;5006677;28;20034;-73
2020/12/30 08:02:04;;;;;;;5.97;4.57;;;7.70;71.60;;;;;;5009696;28;20496;-73
2020/12/30 08:04:32;;;;;;;6.80;4.80;;;7.70;71.50;;;;;;5023415;28;20491;-72
2020/12/30 08:06:58;;;;;;;6.10;4.95;;;7.80;71.70;;;;;;5006621;28;20066;-72
2020/12/30 08:09:29;;;;;;;7.70;5.28;;;7.70;71.60;;;;;;5005952;28;20069;-73
2020/12/30 08:11:57;;;;;;;6.00;4.43;;;7.80;71.60;;;;;;5002979;28;20129;-73
2020/12/30 08:14:23;;;;;;;5.95;4.90;;;7.70;71.60;;;;;;5002791;28;20069;-72
2020/12/30 08:16:53;;;;;;;5.97;4.90;;;7.80;71.60;;;;;;5003627;28;20506;-72
2020/12/30 08:19:32;;;;;;;6.15;4.90;;;7.80;71.70;;;;;;5002777;28;20061;-73
2020/12/30 08:22:27;;;;;;;6.55;5.15;;;7.80;72.10;;;;;;4997071;28;20053;-73
2020/12/30 08:24:57;;;;;;;7.55;4.90;;;7.70;71.50;;;;;;5008033;28;20060;-71
2020/12/30 08:27:28;;;;;;;7.05;5.25;;;7.70;71.60;;;;;;5018886;28;20548;-72
2020/12/30 08:29:54;;;;;;;5.72;4.60;;;7.70;71.60;;;;;;5004120;28;20124;-72
2020/12/30 08:32:44;;;;;;;5.40;4.10;;;7.80;71.60;;;;;;5002166;28;20033;-71
2020/12/30 08:35:16;;;;;;;6.95;5.10;;;7.80;71.60;;;;;;4997472;28;20073;-71
2020/12/30 08:38:01;;;;;;;8.02;5.88;;;7.80;71.70;;;;;;4990191;28;20484;-72
2020/12/30 08:40:30;;;;;;;8.18;6.25;;;7.80;71.70;;;;;;4990069;28;20032;-71
2020/12/30 08:43:33;;;;;;;7.97;5.50;;;7.80;71.70;;;;;;4984782;28;20022;-70
2020/12/30 08:46:05;;;;;;;6.90;4.90;;;7.80;71.60;;;;;;4981048;28;20029;-73
2020/12/30 08:48:33;;;;;;;6.65;5.43;;;7.90;71.70;;;;;;5007904;28;20067;-73
2020/12/30 08:50:58;;;;;;;6.72;4.85;;;7.80;71.70;;;;;;4988836;28;20115;-71
2020/12/30 08:53:42;;;;;;;7.38;5.85;;;7.80;71.70;;;;;;4991583;28;20057;-72
2020/12/30 08:56:08;;;;;;;7.22;5.57;;;7.80;72.20;;;;;;4984844;28;20053;-72
2020/12/30 08:58:34;;;;;;;7.45;6.03;;;7.90;71.90;;;;;;4988819;28;20170;-70
2020/12/30 09:01:01;;;;;;;8.55;6.88;;;7.80;71.80;;;;;;4992772;28;20112;-70
2020/12/30 09:03:28;;;;;;;9.18;6.57;;;7.80;71.70;;;;;;4994448;28;20037;-72
2020/12/30 09:05:58;;;;;;;8.65;7.03;;;7.90;71.80;;;;;;4990057;28;20663;-73
2020/12/30 09:08:27;;;;;;;9.30;6.50;;;7.80;71.60;;;;;;4990009;28;20065;-72
2020/12/30 09:10:52;;;;;;;8.95;6.72;;;7.90;71.70;;;;;;4984082;28;20032;-72
2020/12/30 09:13:29;;;;;;;8.18;7.00;;;7.90;71.70;;;;;;4986433;28;20109;-72
2020/12/30 09:16:00;;;;;;;8.18;6.82;;;7.80;71.60;;;;;;4985711;28;20036;-76
2020/12/30 09:18:30;;;;;;;8.27;6.82;;;7.90;71.60;;;;;;4991359;28;20040;-78
2020/12/30 09:20:56;;;;;;;7.82;6.40;;;7.80;72.00;;;;;;4995973;28;20056;-77
2020/12/30 09:23:23;;;;;;;10.70;7.38;;;7.90;71.60;;;;;;5002473;28;20033;-77
2020/12/30 09:25:49;;;;;;;8.90;6.13;;;8.00;71.60;;;;;;5006301;28;20037;-78
2020/12/30 09:28:23;;;;;;;9.40;7.50;;;7.90;71.60;;;;;;4996987;28;20042;-77
2020/12/30 09:30:52;;;;;;;7.65;6.53;;;7.80;71.60;;;;;;4990613;28;20042;-77
2020/12/30 09:33:19;;;;;;;7.55;6.32;;;7.90;71.60;;;;;;4986282;28;20033;-77
2020/12/30 09:35:45;;;;;;;7.90;6.78;;;7.90;71.60;;;;;;4991439;28;20479;-78
2020/12/30 09:38:18;;;;;;;9.30;6.90;;;7.90;71.50;;;;;;4994392;28;20133;-77
2020/12/30 09:44:09;;;;;;;7.88;6.05;;;7.80;71.40;;;;;;5002392;28;20048;-79
2020/12/30 09:46:34;;;;;;;7.63;6.15;;;7.90;71.40;;;;;;4997467;28;20069;-78
2020/12/30 09:49:00;;;;;;;8.32;6.30;;;7.90;71.50;;;;;;5077012;23;20886;-77
2020/12/30 09:51:25;;;;;;;9.90;7.05;;;7.80;71.50;;;;;;5002808;28;20510;-79
2020/12/30 09:53:53;;;;;;;8.98;6.95;;;7.80;71.50;;;;;;5015636;28;20046;-77
2020/12/30 09:56:19;;;;;;;8.57;7.32;;;7.80;71.50;;;;;;4995137;28;20041;-77
2020/12/30 09:58:44;;;;;;;8.75;6.78;;;7.80;71.50;;;;;;5000585;28;20022;-77
2020/12/30 10:01:10;;;;;;;11.63;7.50;;;7.80;71.50;;;;;;4995483;28;20065;-77
2020/12/30 10:03:35;;;;;;;8.80;7.00;;;7.80;71.60;;;;;;5000923;28;20503;-76
2020/12/30 10:06:01;;;;;;;8.63;7.05;;;7.80;71.70;;;;;;4998707;28;20037;-77
2020/12/30 10:08:26;;;;;;;8.90;6.60;;;7.90;71.80;;;;;;4991758;28;20394;-77
2020/12/30 10:10:52;;;;;;;7.38;6.10;;;7.80;71.80;;;;;;5001665;28;20045;-76
2020/12/30 10:13:17;;;;;;;8.75;7.15;;;7.80;71.80;;;;;;4996699;28;20068;-76
2020/12/30 10:15:43;;;;;;;7.60;6.60;;;7.90;71.90;;;;;;4998542;28;20093;-76
2020/12/30 10:18:08;;;;;;;8.98;7.18;;;7.90;72.00;;;;;;4995502;28;20040;-76
2020/12/30 10:20:34;;;;;;;9.15;7.50;;;7.90;71.90;;;;;;5001555;28;20033;-77
2020/12/30 10:22:59;;;;;;;9.30;6.95;;;7.90;71.90;;;;;;4998870;28;20037;-77
2020/12/30 10:25:25;;;;;;;9.38;6.97;;;7.90;71.80;;;;;;4994115;28;20038;-77
2020/12/30 10:27:50;;;;;;;11.00;8.30;;;7.90;71.90;;;;;;5005339;28;20116;-77
2020/12/30 10:30:16;;;;;;;9.88;6.63;;;7.90;71.80;;;;;;4995631;28;20046;-76
2020/12/30 10:32:41;;;;;;;8.48;6.97;;;8.00;71.90;;;;;;4998878;28;20033;-76
2020/12/30 10:35:07;;;;;;;8.55;6.82;;;8.00;71.90;;;;;;5000425;28;20464;-75
2020/12/30 10:37:33;;;;;;;7.80;6.20;;;8.00;71.90;;;;;;4994049;28;20674;-76
2020/12/30 10:39:59;;;;;;;8.90;6.63;;;8.00;71.90;;;;;;4998755;28;20118;-77
2020/12/30 10:42:24;;;;;;;8.30;6.65;;;8.00;71.90;;;;;;4994658;28;20033;-78
2020/12/30 10:44:50;;;;;;;10.32;7.28;;;8.00;71.80;;;;;;4999797;28;20092;-77
2020/12/30 10:47:15;;;;;;;8.27;6.53;;;8.10;71.90;;;;;;4995641;28;20053;-77
2020/12/30 10:49:41;;;;;;;10.15;7.60;;;8.10;71.90;;;;;;4999556;28;20075;-77
2020/12/30 10:52:07;;;;;;;8.48;6.72;;;7.90;71.70;;;;;;4997599;28;20038;-76
2020/12/30 10:54:33;;;;;;;8.85;7.03;;;8.10;71.80;;;;;;4993378;28;20192;-74
2020/12/30 10:56:58;;;;;;;8.32;6.47;;;8.10;71.80;;;;;;5002290;28;20030;-76
2020/12/30 10:59:24;;;;;;;7.82;6.50;;;8.10;71.90;;;;;;4993792;28;20041;-76
2020/12/30 11:01:50;;;;;;;8.82;6.45;;;8.10;71.80;;;;;;4998653;28;20061;-76
2020/12/30 11:04:16;;;;;;;7.97;6.50;;;8.10;71.90;;;;;;4993028;28;20045;-77
2020/12/30 11:06:41;;;;;;;7.20;5.97;;;8.10;71.80;;;;;;5000370;28;20060;-76
2020/12/30 11:09:07;;;;;;;7.88;6.05;;;8.20;71.90;;;;;;5001211;28;20079;-76
2020/12/30 11:11:34;;;;;;;9.25;6.45;;;8.20;71.90;;;;;;4992911;28;20454;-77
2020/12/30 11:14:00;;;;;;;8.90;6.75;;;8.10;71.80;;;;;;4998859;28;20026;-76
2020/12/30 11:16:25;;;;;;;6.95;5.88;;;8.20;71.90;;;;;;4991540;28;20053;-78
2020/12/30 11:18:51;;;;;;;8.20;6.20;;;8.20;71.90;;;;;;4998925;28;20216;-77
2020/12/30 11:21:16;;;;;;;8.18;6.35;;;8.10;71.80;;;;;;4999091;28;20517;-77
2020/12/30 11:23:42;;;;;;;7.82;6.32;;;8.20;71.90;;;;;;4993458;28;20033;-76
2020/12/30 11:26:07;;;;;;;7.40;6.35;;;8.20;71.90;;;;;;4999768;28;20911;-76
2020/12/30 11:28:33;;;;;;;8.32;6.63;;;8.20;71.90;;;;;;4990618;28;20030;-76
2020/12/30 11:30:59;;;;;;;6.85;5.50;;;8.20;71.80;;;;;;4997595;28;20061;-74
2020/12/30 11:33:24;;;;;;;7.65;6.05;;;8.20;71.80;;;;;;4993330;28;20028;-76
2020/12/30 11:35:50;;;;;;;7.30;6.03;;;8.20;71.80;;;;;;5001291;28;20034;-76
2020/12/30 11:38:15;;;;;;;8.20;6.50;;;8.20;71.80;;;;;;5005346;28;20401;-75
2020/12/30 11:40:41;;;;;;;9.02;7.10;;;8.20;71.90;;;;;;4994954;28;20035;-75
2020/12/30 11:43:07;;;;;;;7.95;6.47;;;8.30;72.00;;;;;;5001669;28;20478;-74
2020/12/30 11:45:33;;;;;;;7.28;6.43;;;8.30;71.90;;;;;;4991416;28;20041;-75
2020/12/30 11:48:00;;;;;;;8.10;6.43;;;8.30;72.00;;;;;;4999765;28;20566;-75
2020/12/30 11:50:26;;;;;;;9.00;7.10;;;8.30;72.00;;;;;;4991132;28;20112;-74
2020/12/30 11:52:51;;;;;;;8.23;6.43;;;8.30;72.00;;;;;;5004095;28;20088;-73
2020/12/30 11:55:17;;;;;;;7.47;5.85;;;8.30;72.00;;;;;;5001192;28;20033;-74
2020/12/30 11:57:43;;;;;;;7.13;6.07;;;8.30;72.10;;;;;;4993894;28;20052;-75
2020/12/30 12:00:09;;;;;;;8.48;6.63;;;8.40;72.10;;;;;;5000014;28;20127;-71
2020/12/30 12:02:35;;;;;;;7.85;6.50;;;8.40;72.10;;;;;;4997265;28;20045;-74
2020/12/30 12:05:01;;;;;;;7.20;6.40;;;8.40;72.00;;;;;;4997772;28;20082;-73
2020/12/30 12:07:30;;;;;;;7.70;6.05;;;8.40;72.00;;;;;;4999405;28;20041;-73
2020/12/30 12:09:56;;;;;;;7.40;6.22;;;8.40;72.00;;;;;;5000602;28;20107;-73
2020/12/30 12:12:22;;;;;;;6.70;5.47;;;8.40;72.10;;;;;;5001113;28;20025;-73
2020/12/30 12:14:48;;;;;;;7.25;6.20;;;8.40;72.10;;;;;;4992911;28;20047;-73
2020/12/30 12:17:13;;;;;;;7.47;6.43;;;8.40;72.10;;;;;;5001767;28;20564;-75
2020/12/30 12:19:39;;;;;;;7.90;6.18;;;8.50;72.20;;;;;;4994000;28;20037;-74
2020/12/30 12:22:04;;;;;;;6.63;5.93;;;8.50;72.30;;;;;;4999090;28;20111;-74
2020/12/30 12:24:30;;;;;;;7.60;6.03;;;8.70;72.40;;;;;;4995976;28;20033;-74
2020/12/30 12:26:58;;;;;;;7.05;6.30;;;8.60;72.30;;;;;;5003079;28;20055;-75
2020/12/30 12:29:36;;;;;;;7.57;6.35;;;8.50;72.20;;;;;;4998612;28;20120;-75
2020/12/30 12:32:12;;;;;;;7.38;5.88;;;8.60;72.20;;;;;;5000286;28;20026;-75
2020/12/30 12:34:40;;;;;;;7.07;6.10;;;8.60;72.20;;;;;;4993096;28;20113;-74
2020/12/30 12:37:07;;;;;;;6.55;5.50;;;8.60;72.70;;;;;;4998772;28;20135;-75
2020/12/30 12:39:35;;;;;;;7.57;5.78;;;8.60;72.20;;;;;;4993320;28;20037;-75
2020/12/30 12:42:00;;;;;;;6.32;5.28;;;8.60;72.20;;;;;;5001479;28;20057;-74
2020/12/30 12:44:26;;;;;;;6.80;5.55;;;8.70;72.20;;;;;;4996160;28;20067;-75
2020/12/30 12:46:52;;;;;;;6.10;5.43;;;8.60;72.20;;;;;;4993065;28;20037;-75
2020/12/30 12:49:18;;;;;;;6.97;5.47;;;8.70;72.30;;;;;;4997193;28;20041;-74
2020/12/30 12:51:48;;;;;;;7.38;6.28;;;8.70;72.70;;;;;;4991573;28;20037;-75
2020/12/30 12:54:14;;;;;;;8.18;6.47;;;8.70;72.10;;;;;;4998334;28;20132;-74
2020/12/30 12:56:39;;;;;;;6.15;5.07;;;8.70;72.10;;;;;;4989119;28;20117;-74
2020/12/30 12:59:05;;;;;;;8.48;5.55;;;8.80;72.10;;;;;;5000715;28;20049;-75
2020/12/30 13:01:30;;;;;;;5.45;4.95;;;8.80;72.00;;;;;;4996227;28;20037;-73
2020/12/30 13:03:56;;;;;;;7.97;5.80;;;8.70;72.00;;;;;;4991506;28;20049;-73